sensor_id;sensor_type;location;lat;lon;timestamp;temperature;humidity
3976;DHT22;2002;48.812;9.180;2022-12-10T00:00:37;17.00;1.00
3976;DHT22;2002;48.812;9.180;2022-12-10T00:03:03;16.80;1.00
3976;DHT22;2002;48.812;9.180;2022-12-10T00:05:30;16.80;1.00
3976;DHT22;2002;48.812;9.180;2022-12-10T00:07:58;16.80;1.00
3976;DHT22;2002;48.812;9.180;2022-12-10T00:10:23;16.60;1.00
3976;DHT22;2002;48.812;9.180;2022-12-10T00:12:49;16.60;1.00
3976;DHT22;2002;48.812;9.180;2022-12-10T00:15:15;16.40;1.00
3976;DHT22;2002;48.812;9.180;2022-12-10T00:17:41;16.40;1.00
3976;DHT22;2002;48.812;9.180;2022-12-10T00:20:08;16.40;1.00
3976;DHT22;2002;48.812;9.180;2022-12-10T00:22:34;16.30;1.00
3976;DHT22;2002;48.812;9.180;2022-12-10T00:24:59;16.30;1.00
3976;DHT22;2002;48.812;9.180;2022-12-10T00:27:25;16.30;1.00
3976;DHT22;2002;48.812;9.180;2022-12-10T00:29:50;16.20;1.00
3976;DHT22;2002;48.812;9.180;2022-12-10T00:32:16;16.20;1.00
3976;DHT22;2002;48.812;9.180;2022-12-10T00:34:41;16.20;1.00
3976;DHT22;2002;48.812;9.180;2022-12-10T00:37:07;16.20;1.00
3976;DHT22;2002;48.812;9.180;2022-12-10T00:39:32;16.10;1.00
3976;DHT22;2002;48.812;9.180;2022-12-10T00:41:58;16.10;1.00
3976;DHT22;2002;48.812;9.180;2022-12-10T00:44:23;16.10;1.00
3976;DHT22;2002;48.812;9.180;2022-12-10T00:46:49;16.10;1.00
3976;DHT22;2002;48.812;9.180;2022-12-10T00:49:14;16.10;1.00
3976;DHT22;2002;48.812;9.180;2022-12-10T00:51:40;16.10;1.00
3976;DHT22;2002;48.812;9.180;2022-12-10T00:54:06;16.10;1.00
3976;DHT22;2002;48.812;9.180;2022-12-10T00:56:33;16.10;1.00
3976;DHT22;2002;48.812;9.180;2022-12-10T00:59:00;16.10;1.00
3976;DHT22;2002;48.812;9.180;2022-12-10T01:01:28;16.10;1.00
3976;DHT22;2002;48.812;9.180;2022-12-10T01:03:56;16.10;1.00
3976;DHT22;2002;48.812;9.180;2022-12-10T01:06:31;16.10;1.00
3976;DHT22;2002;48.812;9.180;2022-12-10T01:08:59;16.10;1.00
3976;DHT22;2002;48.812;9.180;2022-12-10T01:11:30;16.10;1.00
3976;DHT22;2002;48.812;9.180;2022-12-10T01:13:57;16.10;1.00
3976;DHT22;2002;48.812;9.180;2022-12-10T01:16:23;16.10;1.00
3976;DHT22;2002;48.812;9.180;2022-12-10T01:18:51;16.00;1.00
3976;DHT22;2002;48.812;9.180;2022-12-10T01:21:19;16.00;1.00
3976;DHT22;2002;48.812;9.180;2022-12-10T01:23:47;16.00;1.00
3976;DHT22;2002;48.812;9.180;2022-12-10T01:26:15;16.00;1.00
3976;DHT22;2002;48.812;9.180;2022-12-10T01:28:42;16.00;1.00
3976;DHT22;2002;48.812;9.180;2022-12-10T01:31:11;16.00;1.00
3976;DHT22;2002;48.812;9.180;2022-12-10T01:33:37;16.00;1.00
3976;DHT22;2002;48.812;9.180;2022-12-10T01:36:05;16.00;1.00
3976;DHT22;2002;48.812;9.180;2022-12-10T01:38:31;16.00;1.00
3976;DHT22;2002;48.812;9.180;2022-12-10T01:40:57;16.00;1.00
3976;DHT22;2002;48.812;9.180;2022-12-10T01:43:23;16.00;1.00
3976;DHT22;2002;48.812;9.180;2022-12-10T01:45:49;16.00;1.00
3976;DHT22;2002;48.812;9.180;2022-12-10T01:48:15;16.10;1.00
3976;DHT22;2002;48.812;9.180;2022-12-10T01:50:40;16.10;1.00
3976;DHT22;2002;48.812;9.180;2022-12-10T01:53:06;16.40;1.00
3976;DHT22;2002;48.812;9.180;2022-12-10T01:55:49;16.60;1.00
3976;DHT22;2002;48.812;9.180;2022-12-10T01:58:17;16.80;1.00
3976;DHT22;2002;48.812;9.180;2022-12-10T02:00:57;16.70;1.00
3976;DHT22;2002;48.812;9.180;2022-12-10T02:03:40;16.70;1.00
3976;DHT22;2002;48.812;9.180;2022-12-10T02:08:50;16.50;1.00
3976;DHT22;2002;48.812;9.180;2022-12-10T02:11:48;16.40;1.00
3976;DHT22;2002;48.812;9.180;2022-12-10T02:17:15;16.30;1.00
3976;DHT22;2002;48.812;9.180;2022-12-10T02:22:24;16.20;1.00
3976;DHT22;2002;48.812;9.180;2022-12-10T02:24:52;16.20;1.00
3976;DHT22;2002;48.812;9.180;2022-12-10T02:27:35;16.10;1.00
3976;DHT22;2002;48.812;9.180;2022-12-10T02:30:03;16.10;1.00
3976;DHT22;2002;48.812;9.180;2022-12-10T02:32:36;16.10;1.00
3976;DHT22;2002;48.812;9.180;2022-12-10T02:35:06;16.10;1.00
3976;DHT22;2002;48.812;9.180;2022-12-10T02:37:55;16.10;1.00
3976;DHT22;2002;48.812;9.180;2022-12-10T02:40:28;16.10;1.00
3976;DHT22;2002;48.812;9.180;2022-12-10T02:42:56;16.10;1.00
3976;DHT22;2002;48.812;9.180;2022-12-10T02:45:23;16.00;1.00
3976;DHT22;2002;48.812;9.180;2022-12-10T02:47:51;16.00;1.00
3976;DHT22;2002;48.812;9.180;2022-12-10T02:50:19;16.00;1.00
3976;DHT22;2002;48.812;9.180;2022-12-10T02:52:46;16.00;1.00
3976;DHT22;2002;48.812;9.180;2022-12-10T02:55:12;16.00;1.00
3976;DHT22;2002;48.812;9.180;2022-12-10T03:00:32;16.00;1.00
3976;DHT22;2002;48.812;9.180;2022-12-10T03:03:20;16.00;1.00
3976;DHT22;2002;48.812;9.180;2022-12-10T03:06:05;16.00;1.00
3976;DHT22;2002;48.812;9.180;2022-12-10T03:08:34;16.00;1.00
3976;DHT22;2002;48.812;9.180;2022-12-10T03:11:11;16.00;1.00
3976;DHT22;2002;48.812;9.180;2022-12-10T03:13:53;16.00;1.00
3976;DHT22;2002;48.812;9.180;2022-12-10T03:16:21;16.00;1.00
3976;DHT22;2002;48.812;9.180;2022-12-10T03:18:51;16.00;1.00
3976;DHT22;2002;48.812;9.180;2022-12-10T03:21:18;16.00;1.00
3976;DHT22;2002;48.812;9.180;2022-12-10T03:23:46;16.00;1.00
3976;DHT22;2002;48.812;9.180;2022-12-10T03:26:13;16.00;1.00
3976;DHT22;2002;48.812;9.180;2022-12-10T03:28:45;15.90;1.00
3976;DHT22;2002;48.812;9.180;2022-12-10T03:31:13;16.00;1.00
3976;DHT22;2002;48.812;9.180;2022-12-10T03:33:40;15.90;1.00
3976;DHT22;2002;48.812;9.180;2022-12-10T03:36:07;15.90;1.00
3976;DHT22;2002;48.812;9.180;2022-12-10T03:38:34;16.00;1.00
3976;DHT22;2002;48.812;9.180;2022-12-10T03:41:00;16.10;1.00
3976;DHT22;2002;48.812;9.180;2022-12-10T03:43:26;16.40;1.00
3976;DHT22;2002;48.812;9.180;2022-12-10T03:45:51;16.60;1.00
3976;DHT22;2002;48.812;9.180;2022-12-10T03:48:17;16.70;1.00
3976;DHT22;2002;48.812;9.180;2022-12-10T03:50:42;16.70;1.00
3976;DHT22;2002;48.812;9.180;2022-12-10T03:53:08;16.60;1.00
3976;DHT22;2002;48.812;9.180;2022-12-10T03:55:33;16.60;1.00
3976;DHT22;2002;48.812;9.180;2022-12-10T03:57:59;16.50;1.00
3976;DHT22;2002;48.812;9.180;2022-12-10T04:00:25;16.40;1.00
3976;DHT22;2002;48.812;9.180;2022-12-10T04:02:50;16.30;1.00
3976;DHT22;2002;48.812;9.180;2022-12-10T04:05:16;16.30;1.00
3976;DHT22;2002;48.812;9.180;2022-12-10T04:07:41;16.20;1.00
3976;DHT22;2002;48.812;9.180;2022-12-10T04:10:07;16.20;1.00
3976;DHT22;2002;48.812;9.180;2022-12-10T04:12:33;16.20;1.00
3976;DHT22;2002;48.812;9.180;2022-12-10T04:14:59;16.10;1.00
3976;DHT22;2002;48.812;9.180;2022-12-10T04:17:43;16.10;1.00
3976;DHT22;2002;48.812;9.180;2022-12-10T04:20:09;16.20;1.00
3976;DHT22;2002;48.812;9.180;2022-12-10T04:22:54;16.10;1.00
3976;DHT22;2002;48.812;9.180;2022-12-10T04:25:39;16.10;1.00
3976;DHT22;2002;48.812;9.180;2022-12-10T04:28:23;16.00;1.00
3976;DHT22;2002;48.812;9.180;2022-12-10T04:30:48;16.00;1.00
3976;DHT22;2002;48.812;9.180;2022-12-10T04:33:14;16.00;1.00
3976;DHT22;2002;48.812;9.180;2022-12-10T04:35:39;16.00;1.00
3976;DHT22;2002;48.812;9.180;2022-12-10T04:38:05;16.00;1.00
3976;DHT22;2002;48.812;9.180;2022-12-10T04:40:30;16.00;1.00
3976;DHT22;2002;48.812;9.180;2022-12-10T04:42:56;16.00;1.00
3976;DHT22;2002;48.812;9.180;2022-12-10T04:45:21;16.00;1.00
3976;DHT22;2002;48.812;9.180;2022-12-10T04:47:47;16.00;1.00
3976;DHT22;2002;48.812;9.180;2022-12-10T04:50:12;16.00;1.00
3976;DHT22;2002;48.812;9.180;2022-12-10T04:52:38;16.00;1.00
3976;DHT22;2002;48.812;9.180;2022-12-10T04:55:04;16.00;1.00
3976;DHT22;2002;48.812;9.180;2022-12-10T04:57:29;16.00;1.00
3976;DHT22;2002;48.812;9.180;2022-12-10T04:59:55;16.00;1.00
3976;DHT22;2002;48.812;9.180;2022-12-10T05:02:20;16.00;1.00
3976;DHT22;2002;48.812;9.180;2022-12-10T05:04:48;15.90;1.00
3976;DHT22;2002;48.812;9.180;2022-12-10T05:07:14;16.00;1.00
3976;DHT22;2002;48.812;9.180;2022-12-10T05:09:39;16.00;1.00
3976;DHT22;2002;48.812;9.180;2022-12-10T05:12:05;16.00;1.00
3976;DHT22;2002;48.812;9.180;2022-12-10T05:14:30;15.90;1.00
3976;DHT22;2002;48.812;9.180;2022-12-10T05:16:56;16.00;1.00
3976;DHT22;2002;48.812;9.180;2022-12-10T05:19:21;15.90;1.00
3976;DHT22;2002;48.812;9.180;2022-12-10T05:21:49;15.90;1.00
3976;DHT22;2002;48.812;9.180;2022-12-10T05:24:33;15.90;1.00
3976;DHT22;2002;48.812;9.180;2022-12-10T05:26:59;15.90;1.00
3976;DHT22;2002;48.812;9.180;2022-12-10T05:29:24;15.90;1.00
3976;DHT22;2002;48.812;9.180;2022-12-10T05:31:50;16.00;1.00
3976;DHT22;2002;48.812;9.180;2022-12-10T05:34:16;16.30;1.00
3976;DHT22;2002;48.812;9.180;2022-12-10T05:36:41;16.60;1.00
3976;DHT22;2002;48.812;9.180;2022-12-10T05:39:07;16.80;1.00
3976;DHT22;2002;48.812;9.180;2022-12-10T05:41:38;16.90;1.00
3976;DHT22;2002;48.812;9.180;2022-12-10T05:44:04;16.80;1.00
3976;DHT22;2002;48.812;9.180;2022-12-10T05:46:31;16.70;1.00
3976;DHT22;2002;48.812;9.180;2022-12-10T05:48:57;16.70;1.00
3976;DHT22;2002;48.812;9.180;2022-12-10T05:51:26;16.60;1.00
3976;DHT22;2002;48.812;9.180;2022-12-10T05:53:52;16.50;1.00
3976;DHT22;2002;48.812;9.180;2022-12-10T05:56:21;16.40;1.00
3976;DHT22;2002;48.812;9.180;2022-12-10T05:58:48;16.30;1.00
3976;DHT22;2002;48.812;9.180;2022-12-10T06:01:16;16.30;1.00
3976;DHT22;2002;48.812;9.180;2022-12-10T06:03:42;16.20;1.00
3976;DHT22;2002;48.812;9.180;2022-12-10T06:06:08;16.20;1.00
3976;DHT22;2002;48.812;9.180;2022-12-10T06:08:34;16.20;1.00
3976;DHT22;2002;48.812;9.180;2022-12-10T06:11:08;16.10;1.00
3976;DHT22;2002;48.812;9.180;2022-12-10T06:13:34;16.10;1.00
3976;DHT22;2002;48.812;9.180;2022-12-10T06:16:07;16.00;1.00
3976;DHT22;2002;48.812;9.180;2022-12-10T06:18:33;16.00;1.00
3976;DHT22;2002;48.812;9.180;2022-12-10T06:21:09;16.00;1.00
3976;DHT22;2002;48.812;9.180;2022-12-10T06:23:36;16.00;1.00
3976;DHT22;2002;48.812;9.180;2022-12-10T06:26:15;16.00;1.00
3976;DHT22;2002;48.812;9.180;2022-12-10T06:28:41;16.00;1.00
3976;DHT22;2002;48.812;9.180;2022-12-10T06:31:07;16.00;1.00
3976;DHT22;2002;48.812;9.180;2022-12-10T06:33:33;16.00;1.00
3976;DHT22;2002;48.812;9.180;2022-12-10T06:35:58;16.00;1.00
3976;DHT22;2002;48.812;9.180;2022-12-10T06:38:24;16.00;1.00
3976;DHT22;2002;48.812;9.180;2022-12-10T06:40:50;16.00;1.00
3976;DHT22;2002;48.812;9.180;2022-12-10T06:43:15;16.00;1.00
3976;DHT22;2002;48.812;9.180;2022-12-10T06:45:41;16.00;1.00
3976;DHT22;2002;48.812;9.180;2022-12-10T06:48:08;15.90;1.00
3976;DHT22;2002;48.812;9.180;2022-12-10T06:50:34;16.00;1.00
3976;DHT22;2002;48.812;9.180;2022-12-10T06:53:00;15.90;1.00
3976;DHT22;2002;48.812;9.180;2022-12-10T06:55:25;15.90;1.00
3976;DHT22;2002;48.812;9.180;2022-12-10T06:57:55;15.90;1.00
3976;DHT22;2002;48.812;9.180;2022-12-10T07:00:21;16.00;1.00
3976;DHT22;2002;48.812;9.180;2022-12-10T07:02:47;15.90;1.00
3976;DHT22;2002;48.812;9.180;2022-12-10T07:05:13;15.90;1.00
3976;DHT22;2002;48.812;9.180;2022-12-10T07:07:39;15.90;1.00
3976;DHT22;2002;48.812;9.180;2022-12-10T07:10:05;15.90;1.00
3976;DHT22;2002;48.812;9.180;2022-12-10T07:12:30;15.90;1.00
3976;DHT22;2002;48.812;9.180;2022-12-10T07:14:56;15.90;1.00
3976;DHT22;2002;48.812;9.180;2022-12-10T07:17:21;15.90;1.00
3976;DHT22;2002;48.812;9.180;2022-12-10T07:19:47;15.90;1.00
3976;DHT22;2002;48.812;9.180;2022-12-10T07:22:12;15.90;1.00
3976;DHT22;2002;48.812;9.180;2022-12-10T07:24:38;16.10;1.00
3976;DHT22;2002;48.812;9.180;2022-12-10T07:27:08;16.30;1.00
3976;DHT22;2002;48.812;9.180;2022-12-10T07:29:34;16.60;1.00
3976;DHT22;2002;48.812;9.180;2022-12-10T07:31:59;16.70;1.00
3976;DHT22;2002;48.812;9.180;2022-12-10T07:34:25;16.70;1.00
3976;DHT22;2002;48.812;9.180;2022-12-10T07:36:51;16.70;1.00
3976;DHT22;2002;48.812;9.180;2022-12-10T07:39:17;16.60;1.00
3976;DHT22;2002;48.812;9.180;2022-12-10T07:41:52;16.50;1.00
3976;DHT22;2002;48.812;9.180;2022-12-10T07:44:19;16.40;1.00
3976;DHT22;2002;48.812;9.180;2022-12-10T07:46:47;16.30;1.00
3976;DHT22;2002;48.812;9.180;2022-12-10T07:49:13;16.30;1.00
3976;DHT22;2002;48.812;9.180;2022-12-10T07:51:39;16.20;1.00
3976;DHT22;2002;48.812;9.180;2022-12-10T07:54:05;16.20;1.00
3976;DHT22;2002;48.812;9.180;2022-12-10T07:56:30;16.20;1.00
3976;DHT22;2002;48.812;9.180;2022-12-10T07:58:56;16.10;1.00
3976;DHT22;2002;48.812;9.180;2022-12-10T08:01:24;16.10;1.00
3976;DHT22;2002;48.812;9.180;2022-12-10T08:03:51;16.10;1.00
3976;DHT22;2002;48.812;9.180;2022-12-10T08:06:19;16.00;1.00
3976;DHT22;2002;48.812;9.180;2022-12-10T08:08:45;16.00;1.00
3976;DHT22;2002;48.812;9.180;2022-12-10T08:11:12;16.00;1.00
3976;DHT22;2002;48.812;9.180;2022-12-10T08:13:38;16.00;1.00
3976;DHT22;2002;48.812;9.180;2022-12-10T08:16:15;16.00;1.00
3976;DHT22;2002;48.812;9.180;2022-12-10T08:18:41;16.00;1.00
3976;DHT22;2002;48.812;9.180;2022-12-10T08:21:11;16.00;1.00
3976;DHT22;2002;48.812;9.180;2022-12-10T08:23:37;16.00;1.00
3976;DHT22;2002;48.812;9.180;2022-12-10T08:26:05;15.90;1.00
3976;DHT22;2002;48.812;9.180;2022-12-10T08:28:32;15.90;1.00
3976;DHT22;2002;48.812;9.180;2022-12-10T08:30:57;15.90;1.00
3976;DHT22;2002;48.812;9.180;2022-12-10T08:33:23;15.90;1.00
3976;DHT22;2002;48.812;9.180;2022-12-10T08:35:48;15.90;1.00
3976;DHT22;2002;48.812;9.180;2022-12-10T08:38:14;15.90;1.00
3976;DHT22;2002;48.812;9.180;2022-12-10T08:40:41;15.90;1.00
3976;DHT22;2002;48.812;9.180;2022-12-10T08:43:07;15.90;1.00
3976;DHT22;2002;48.812;9.180;2022-12-10T08:45:32;15.90;1.00
3976;DHT22;2002;48.812;9.180;2022-12-10T08:47:58;15.90;1.00
3976;DHT22;2002;48.812;9.180;2022-12-10T08:50:23;15.90;1.00
3976;DHT22;2002;48.812;9.180;2022-12-10T08:52:49;15.90;1.00
3976;DHT22;2002;48.812;9.180;2022-12-10T08:55:14;15.90;1.00
3976;DHT22;2002;48.812;9.180;2022-12-10T08:57:40;15.90;1.00
3976;DHT22;2002;48.812;9.180;2022-12-10T09:00:06;15.90;1.00
3976;DHT22;2002;48.812;9.180;2022-12-10T09:02:32;15.90;1.00
3976;DHT22;2002;48.812;9.180;2022-12-10T09:04:58;15.90;1.00
3976;DHT22;2002;48.812;9.180;2022-12-10T09:07:23;15.90;1.00
3976;DHT22;2002;48.812;9.180;2022-12-10T09:09:49;15.90;1.00
3976;DHT22;2002;48.812;9.180;2022-12-10T09:12:14;15.90;1.00
3976;DHT22;2002;48.812;9.180;2022-12-10T09:14:40;16.00;1.00
3976;DHT22;2002;48.812;9.180;2022-12-10T09:17:07;16.30;1.00
3976;DHT22;2002;48.812;9.180;2022-12-10T09:19:32;16.60;1.00
3976;DHT22;2002;48.812;9.180;2022-12-10T09:21:58;16.70;1.00
3976;DHT22;2002;48.812;9.180;2022-12-10T09:24:24;16.70;1.00
3976;DHT22;2002;48.812;9.180;2022-12-10T09:26:49;16.70;1.00
3976;DHT22;2002;48.812;9.180;2022-12-10T09:29:15;16.60;1.00
3976;DHT22;2002;48.812;9.180;2022-12-10T09:31:40;16.50;1.00
3976;DHT22;2002;48.812;9.180;2022-12-10T09:34:06;16.40;1.00
3976;DHT22;2002;48.812;9.180;2022-12-10T09:36:31;16.40;1.00
3976;DHT22;2002;48.812;9.180;2022-12-10T09:38:57;16.30;1.00
3976;DHT22;2002;48.812;9.180;2022-12-10T09:51:38;16.00;1.00
3976;DHT22;2002;48.812;9.180;2022-12-10T09:54:25;16.00;1.00
3976;DHT22;2002;48.812;9.180;2022-12-10T09:56:53;16.00;1.00
3976;DHT22;2002;48.812;9.180;2022-12-10T09:59:33;16.00;1.00
3976;DHT22;2002;48.812;9.180;2022-12-10T10:02:25;16.00;1.00
3976;DHT22;2002;48.812;9.180;2022-12-10T10:07:35;16.20;1.00
3976;DHT22;2002;48.812;9.180;2022-12-10T10:10:05;16.40;1.00
3976;DHT22;2002;48.812;9.180;2022-12-10T10:12:33;16.40;1.00
3976;DHT22;2002;48.812;9.180;2022-12-10T10:15:14;16.40;1.00
3976;DHT22;2002;48.812;9.180;2022-12-10T10:17:42;16.30;1.00
3976;DHT22;2002;48.812;9.180;2022-12-10T10:20:13;16.30;1.00
3976;DHT22;2002;48.812;9.180;2022-12-10T10:22:40;16.20;1.00
3976;DHT22;2002;48.812;9.180;2022-12-10T10:25:16;16.20;1.00
3976;DHT22;2002;48.812;9.180;2022-12-10T10:27:43;16.10;1.00
3976;DHT22;2002;48.812;9.180;2022-12-10T10:30:20;16.10;1.00
3976;DHT22;2002;48.812;9.180;2022-12-10T10:32:54;16.10;1.00
3976;DHT22;2002;48.812;9.180;2022-12-10T10:35:32;16.00;1.00
3976;DHT22;2002;48.812;9.180;2022-12-10T10:38:06;16.00;1.00
3976;DHT22;2002;48.812;9.180;2022-12-10T10:40:39;16.00;1.00
3976;DHT22;2002;48.812;9.180;2022-12-10T10:43:06;16.00;1.00
3976;DHT22;2002;48.812;9.180;2022-12-10T10:45:42;16.00;1.00
3976;DHT22;2002;48.812;9.180;2022-12-10T10:48:15;16.00;1.00
3976;DHT22;2002;48.812;9.180;2022-12-10T10:50:46;16.00;1.00
3976;DHT22;2002;48.812;9.180;2022-12-10T10:55:58;16.00;1.00
3976;DHT22;2002;48.812;9.180;2022-12-10T10:58:25;16.00;1.00
3976;DHT22;2002;48.812;9.180;2022-12-10T11:00:58;16.00;1.00
3976;DHT22;2002;48.812;9.180;2022-12-10T11:03:26;15.90;1.00
3976;DHT22;2002;48.812;9.180;2022-12-10T11:05:54;15.90;1.00
3976;DHT22;2002;48.812;9.180;2022-12-10T11:08:21;15.90;1.00
3976;DHT22;2002;48.812;9.180;2022-12-10T11:11:25;15.90;1.00
3976;DHT22;2002;48.812;9.180;2022-12-10T11:13:42;15.90;1.00
3976;DHT22;2002;48.812;9.180;2022-12-10T11:16:23;15.90;1.00
3976;DHT22;2002;48.812;9.180;2022-12-10T11:19:01;15.90;1.00
3976;DHT22;2002;48.812;9.180;2022-12-10T11:21:30;15.90;1.00
3976;DHT22;2002;48.812;9.180;2022-12-10T11:23:57;15.90;1.00
3976;DHT22;2002;48.812;9.180;2022-12-10T11:37:21;15.90;1.00
3976;DHT22;2002;48.812;9.180;2022-12-10T11:40:14;15.90;1.00
3976;DHT22;2002;48.812;9.180;2022-12-10T11:45:26;15.80;1.00
3976;DHT22;2002;48.812;9.180;2022-12-10T12:04:27;16.90;1.00
3976;DHT22;2002;48.812;9.180;2022-12-10T12:13:09;16.60;1.00
3976;DHT22;2002;48.812;9.180;2022-12-10T12:21:33;16.20;1.00
3976;DHT22;2002;48.812;9.180;2022-12-10T12:24:08;16.20;1.00
3976;DHT22;2002;48.812;9.180;2022-12-10T12:26:40;16.10;1.00
3976;DHT22;2002;48.812;9.180;2022-12-10T12:29:30;16.10;1.00
3976;DHT22;2002;48.812;9.180;2022-12-10T12:32:20;16.10;1.00
3976;DHT22;2002;48.812;9.180;2022-12-10T12:34:55;16.00;1.00
3976;DHT22;2002;48.812;9.180;2022-12-10T12:37:28;16.00;1.00
3976;DHT22;2002;48.812;9.180;2022-12-10T12:42:52;16.00;1.00
3976;DHT22;2002;48.812;9.180;2022-12-10T12:45:28;16.00;1.00
3976;DHT22;2002;48.812;9.180;2022-12-10T12:48:14;16.00;1.00
3976;DHT22;2002;48.812;9.180;2022-12-10T12:50:44;16.00;1.00
3976;DHT22;2002;48.812;9.180;2022-12-10T12:53:19;16.00;1.00
3976;DHT22;2002;48.812;9.180;2022-12-10T12:56:08;15.90;1.00
3976;DHT22;2002;48.812;9.180;2022-12-10T13:01:39;15.90;1.00
3976;DHT22;2002;48.812;9.180;2022-12-10T13:04:05;15.90;1.00
3976;DHT22;2002;48.812;9.180;2022-12-10T13:06:35;15.90;1.00
3976;DHT22;2002;48.812;9.180;2022-12-10T13:15:02;15.90;1.00
3976;DHT22;2002;48.812;9.180;2022-12-10T13:17:34;15.90;1.00
3976;DHT22;2002;48.812;9.180;2022-12-10T13:23:01;15.90;1.00
3976;DHT22;2002;48.812;9.180;2022-12-10T13:33:52;15.80;1.00
3976;DHT22;2002;48.812;9.180;2022-12-10T13:41:33;15.80;1.00
3976;DHT22;2002;48.812;9.180;2022-12-10T13:44:49;15.90;1.00
3976;DHT22;2002;48.812;9.180;2022-12-10T13:49:54;16.20;1.00
3976;DHT22;2002;48.812;9.180;2022-12-10T13:52:38;16.50;1.00
3976;DHT22;2002;48.812;9.180;2022-12-10T14:03:45;16.40;1.00
3976;DHT22;2002;48.812;9.180;2022-12-10T14:06:21;16.30;1.00
3976;DHT22;2002;48.812;9.180;2022-12-10T14:11:37;16.20;1.00
3976;DHT22;2002;48.812;9.180;2022-12-10T14:14:11;16.10;1.00
3976;DHT22;2002;48.812;9.180;2022-12-10T14:16:39;16.10;1.00
3976;DHT22;2002;48.812;9.180;2022-12-10T14:19:13;16.10;1.00
3976;DHT22;2002;48.812;9.180;2022-12-10T14:21:41;16.00;1.00
3976;DHT22;2002;48.812;9.180;2022-12-10T14:24:26;16.00;1.00
3976;DHT22;2002;48.812;9.180;2022-12-10T14:27:14;16.00;1.00
3976;DHT22;2002;48.812;9.180;2022-12-10T14:29:51;16.00;1.00
3976;DHT22;2002;48.812;9.180;2022-12-10T14:32:20;15.90;1.00
3976;DHT22;2002;48.812;9.180;2022-12-10T14:35:07;15.90;1.00
3976;DHT22;2002;48.812;9.180;2022-12-10T14:37:36;15.90;1.00
3976;DHT22;2002;48.812;9.180;2022-12-10T14:40:05;15.90;1.00
3976;DHT22;2002;48.812;9.180;2022-12-10T14:42:32;15.90;1.00
3976;DHT22;2002;48.812;9.180;2022-12-10T14:45:05;15.90;1.00
3976;DHT22;2002;48.812;9.180;2022-12-10T14:47:39;15.90;1.00
3976;DHT22;2002;48.812;9.180;2022-12-10T14:50:13;15.90;1.00
3976;DHT22;2002;48.812;9.180;2022-12-10T14:52:41;15.90;1.00
3976;DHT22;2002;48.812;9.180;2022-12-10T14:55:16;15.90;1.00
3976;DHT22;2002;48.812;9.180;2022-12-10T14:57:51;15.90;1.00
3976;DHT22;2002;48.812;9.180;2022-12-10T15:00:21;15.90;1.00
3976;DHT22;2002;48.812;9.180;2022-12-10T15:03:01;15.90;1.00
3976;DHT22;2002;48.812;9.180;2022-12-10T15:05:30;15.90;1.00
3976;DHT22;2002;48.812;9.180;2022-12-10T15:08:05;15.90;1.00
3976;DHT22;2002;48.812;9.180;2022-12-10T15:10:37;15.90;1.00
3976;DHT22;2002;48.812;9.180;2022-12-10T15:13:04;15.90;1.00
3976;DHT22;2002;48.812;9.180;2022-12-10T15:15:35;15.80;1.00
3976;DHT22;2002;48.812;9.180;2022-12-10T15:20:47;15.80;1.00
3976;DHT22;2002;48.812;9.180;2022-12-10T15:23:30;15.80;1.00
3976;DHT22;2002;48.812;9.180;2022-12-10T15:28:42;15.80;1.00
3976;DHT22;2002;48.812;9.180;2022-12-10T15:34:06;15.80;1.00
3976;DHT22;2002;48.812;9.180;2022-12-10T15:41:43;16.40;1.00
3976;DHT22;2002;48.812;9.180;2022-12-10T15:49:30;16.70;1.00
3976;DHT22;2002;48.812;9.180;2022-12-10T15:51:56;16.70;1.00
3976;DHT22;2002;48.812;9.180;2022-12-10T15:54:37;16.60;1.00
3976;DHT22;2002;48.812;9.180;2022-12-10T15:59:38;16.40;1.00
3976;DHT22;2002;48.812;9.180;2022-12-10T16:02:30;16.30;1.00
3976;DHT22;2002;48.812;9.180;2022-12-10T16:04:59;16.20;1.00
3976;DHT22;2002;48.812;9.180;2022-12-10T16:07:25;16.20;1.00
3976;DHT22;2002;48.812;9.180;2022-12-10T16:09:50;16.10;1.00
3976;DHT22;2002;48.812;9.180;2022-12-10T16:12:17;16.10;1.00
3976;DHT22;2002;48.812;9.180;2022-12-10T16:14:54;16.10;1.00
3976;DHT22;2002;48.812;9.180;2022-12-10T16:17:25;16.10;1.00
3976;DHT22;2002;48.812;9.180;2022-12-10T16:19:52;16.00;1.00
3976;DHT22;2002;48.812;9.180;2022-12-10T16:22:18;16.00;1.00
3976;DHT22;2002;48.812;9.180;2022-12-10T16:24:44;16.00;1.00
3976;DHT22;2002;48.812;9.180;2022-12-10T16:27:13;16.00;1.00
3976;DHT22;2002;48.812;9.180;2022-12-10T16:29:40;15.90;1.00
3976;DHT22;2002;48.812;9.180;2022-12-10T16:32:09;15.90;1.00
3976;DHT22;2002;48.812;9.180;2022-12-10T16:34:35;15.90;1.00
3976;DHT22;2002;48.812;9.180;2022-12-10T16:37:00;15.90;1.00
3976;DHT22;2002;48.812;9.180;2022-12-10T16:39:26;15.90;1.00
3976;DHT22;2002;48.812;9.180;2022-12-10T16:41:53;15.90;1.00
3976;DHT22;2002;48.812;9.180;2022-12-10T16:44:19;15.90;1.00
3976;DHT22;2002;48.812;9.180;2022-12-10T16:46:44;15.90;1.00
3976;DHT22;2002;48.812;9.180;2022-12-10T16:49:10;15.90;1.00
3976;DHT22;2002;48.812;9.180;2022-12-10T16:51:36;15.90;1.00
3976;DHT22;2002;48.812;9.180;2022-12-10T16:54:02;15.90;1.00
3976;DHT22;2002;48.812;9.180;2022-12-10T16:56:29;15.90;1.00
3976;DHT22;2002;48.812;9.180;2022-12-10T16:58:55;15.90;1.00
3976;DHT22;2002;48.812;9.180;2022-12-10T17:01:24;15.90;1.00
3976;DHT22;2002;48.812;9.180;2022-12-10T17:03:51;15.90;1.00
3976;DHT22;2002;48.812;9.180;2022-12-10T17:06:18;15.90;1.00
3976;DHT22;2002;48.812;9.180;2022-12-10T17:08:44;15.80;1.00
3976;DHT22;2002;48.812;9.180;2022-12-10T17:11:15;15.80;1.00
3976;DHT22;2002;48.812;9.180;2022-12-10T17:14:23;15.80;1.00
3976;DHT22;2002;48.812;9.180;2022-12-10T17:16:51;15.80;1.00
3976;DHT22;2002;48.812;9.180;2022-12-10T17:19:17;15.80;1.00
3976;DHT22;2002;48.812;9.180;2022-12-10T17:21:43;15.80;1.00
3976;DHT22;2002;48.812;9.180;2022-12-10T17:24:09;15.90;1.00
3976;DHT22;2002;48.812;9.180;2022-12-10T17:26:40;15.80;1.00
3976;DHT22;2002;48.812;9.180;2022-12-10T17:29:22;15.80;1.00
3976;DHT22;2002;48.812;9.180;2022-12-10T17:31:49;15.90;1.00
3976;DHT22;2002;48.812;9.180;2022-12-10T17:34:15;16.10;1.00
3976;DHT22;2002;48.812;9.180;2022-12-10T17:36:42;16.40;1.00
3976;DHT22;2002;48.812;9.180;2022-12-10T17:39:15;16.60;1.00
3976;DHT22;2002;48.812;9.180;2022-12-10T17:41:41;16.60;1.00
3976;DHT22;2002;48.812;9.180;2022-12-10T17:44:06;16.60;1.00
3976;DHT22;2002;48.812;9.180;2022-12-10T17:46:32;16.50;1.00
3976;DHT22;2002;48.812;9.180;2022-12-10T17:48:58;16.50;1.00
3976;DHT22;2002;48.812;9.180;2022-12-10T17:51:24;16.40;1.00
3976;DHT22;2002;48.812;9.180;2022-12-10T17:53:50;16.30;1.00
3976;DHT22;2002;48.812;9.180;2022-12-10T17:56:20;16.20;1.00
3976;DHT22;2002;48.812;9.180;2022-12-10T17:58:48;16.10;1.00
3976;DHT22;2002;48.812;9.180;2022-12-10T18:01:15;16.10;1.00
3976;DHT22;2002;48.812;9.180;2022-12-10T18:03:41;16.10;1.00
3976;DHT22;2002;48.812;9.180;2022-12-10T18:06:23;16.10;1.00
3976;DHT22;2002;48.812;9.180;2022-12-10T18:08:53;16.00;1.00
3976;DHT22;2002;48.812;9.180;2022-12-10T18:11:22;16.00;1.00
3976;DHT22;2002;48.812;9.180;2022-12-10T18:13:47;16.00;1.00
3976;DHT22;2002;48.812;9.180;2022-12-10T18:16:18;16.00;1.00
3976;DHT22;2002;48.812;9.180;2022-12-10T18:18:45;16.00;1.00
3976;DHT22;2002;48.812;9.180;2022-12-10T18:21:14;16.00;1.00
3976;DHT22;2002;48.812;9.180;2022-12-10T18:23:40;16.00;1.00
3976;DHT22;2002;48.812;9.180;2022-12-10T18:26:15;15.90;1.00
3976;DHT22;2002;48.812;9.180;2022-12-10T18:28:44;15.90;1.00
3976;DHT22;2002;48.812;9.180;2022-12-10T18:31:16;16.00;1.00
3976;DHT22;2002;48.812;9.180;2022-12-10T18:33:45;15.90;1.00
3976;DHT22;2002;48.812;9.180;2022-12-10T18:36:20;15.90;1.00
3976;DHT22;2002;48.812;9.180;2022-12-10T18:38:47;15.90;1.00
3976;DHT22;2002;48.812;9.180;2022-12-10T18:41:15;15.90;1.00
3976;DHT22;2002;48.812;9.180;2022-12-10T18:43:41;15.90;1.00